sensor_id;sensor_type;location;lat;lon;timestamp;P1;durP1;ratioP1;P2;durP2;ratioP2
63288;SDS011;49412;48.162;-1.978;2022-11-15T00:00:27;12.38;;;2.35;;
63288;SDS011;49412;48.162;-1.978;2022-11-15T00:05:19;13.38;;;2.60;;
63288;SDS011;49412;48.162;-1.978;2022-11-15T00:07:45;9.65;;;2.00;;
63288;SDS011;49412;48.162;-1.978;2022-11-15T00:10:10;15.05;;;2.25;;
63288;SDS011;49412;48.162;-1.978;2022-11-15T00:12:36;12.18;;;2.30;;
63288;SDS011;49412;48.162;-1.978;2022-11-15T00:15:02;16.13;;;2.15;;
63288;SDS011;49412;48.162;-1.978;2022-11-15T00:19:54;13.68;;;2.65;;
63288;SDS011;49412;48.162;-1.978;2022-11-15T00:22:21;15.60;;;2.00;;
63288;SDS011;49412;48.162;-1.978;2022-11-15T00:24:46;15.73;;;2.28;;
63288;SDS011;49412;48.162;-1.978;2022-11-15T00:27:12;17.13;;;2.80;;
63288;SDS011;49412;48.162;-1.978;2022-11-15T00:29:38;11.50;;;2.40;;
63288;SDS011;49412;48.162;-1.978;2022-11-15T00:32:11;14.88;;;2.10;;
63288;SDS011;49412;48.162;-1.978;2022-11-15T00:34:37;11.55;;;1.88;;
63288;SDS011;49412;48.162;-1.978;2022-11-15T00:39:28;14.48;;;2.53;;
63288;SDS011;49412;48.162;-1.978;2022-11-15T00:41:54;10.43;;;2.25;;
63288;SDS011;49412;48.162;-1.978;2022-11-15T00:44:20;13.13;;;2.22;;
63288;SDS011;49412;48.162;-1.978;2022-11-15T00:46:46;13.88;;;2.30;;
63288;SDS011;49412;48.162;-1.978;2022-11-15T00:49:11;17.95;;;2.60;;
63288;SDS011;49412;48.162;-1.978;2022-11-15T00:51:37;14.55;;;2.30;;
63288;SDS011;49412;48.162;-1.978;2022-11-15T00:54:04;16.60;;;2.40;;
63288;SDS011;49412;48.162;-1.978;2022-11-15T00:58:55;12.57;;;2.25;;
63288;SDS011;49412;48.162;-1.978;2022-11-15T01:03:47;11.52;;;2.10;;
63288;SDS011;49412;48.162;-1.978;2022-11-15T01:06:12;10.73;;;1.80;;
63288;SDS011;49412;48.162;-1.978;2022-11-15T01:11:05;11.57;;;2.28;;
63288;SDS011;49412;48.162;-1.978;2022-11-15T01:13:34;11.30;;;2.17;;
63288;SDS011;49412;48.162;-1.978;2022-11-15T01:16:11;15.32;;;2.22;;
63288;SDS011;49412;48.162;-1.978;2022-11-15T01:18:41;13.30;;;2.20;;
63288;SDS011;49412;48.162;-1.978;2022-11-15T01:23:38;10.63;;;2.15;;
63288;SDS011;49412;48.162;-1.978;2022-11-15T01:28:31;12.80;;;1.98;;
63288;SDS011;49412;48.162;-1.978;2022-11-15T01:31:01;14.40;;;2.03;;
63288;SDS011;49412;48.162;-1.978;2022-11-15T01:33:28;14.55;;;2.17;;
63288;SDS011;49412;48.162;-1.978;2022-11-15T01:35:54;14.82;;;2.40;;
63288;SDS011;49412;48.162;-1.978;2022-11-15T01:38:21;14.80;;;2.38;;
63288;SDS011;49412;48.162;-1.978;2022-11-15T01:40:47;13.18;;;2.20;;
63288;SDS011;49412;48.162;-1.978;2022-11-15T01:45:50;10.60;;;1.77;;
63288;SDS011;49412;48.162;-1.978;2022-11-15T01:48:22;12.85;;;2.15;;
63288;SDS011;49412;48.162;-1.978;2022-11-15T01:50:54;12.02;;;2.15;;
63288;SDS011;49412;48.162;-1.978;2022-11-15T01:53:20;12.68;;;2.13;;
63288;SDS011;49412;48.162;-1.978;2022-11-15T01:55:47;13.07;;;2.00;;
63288;SDS011;49412;48.162;-1.978;2022-11-15T02:00:39;9.77;;;1.75;;
63288;SDS011;49412;48.162;-1.978;2022-11-15T02:03:05;10.75;;;2.10;;
63288;SDS011;49412;48.162;-1.978;2022-11-15T02:07:57;14.05;;;2.22;;
63288;SDS011;49412;48.162;-1.978;2022-11-15T02:12:49;14.25;;;2.10;;
63288;SDS011;49412;48.162;-1.978;2022-11-15T02:15:16;17.70;;;2.92;;
63288;SDS011;49412;48.162;-1.978;2022-11-15T02:20:39;12.20;;;1.95;;
63288;SDS011;49412;48.162;-1.978;2022-11-15T02:29:10;11.70;;;2.22;;
63288;SDS011;49412;48.162;-1.978;2022-11-15T02:37:17;12.02;;;1.95;;
63288;SDS011;49412;48.162;-1.978;2022-11-15T02:45:19;14.10;;;2.10;;
63288;SDS011;49412;48.162;-1.978;2022-11-15T02:47:50;11.52;;;1.98;;
63288;SDS011;49412;48.162;-1.978;2022-11-15T02:50:20;12.95;;;2.00;;
63288;SDS011;49412;48.162;-1.978;2022-11-15T02:52:49;13.00;;;2.40;;
63288;SDS011;49412;48.162;-1.978;2022-11-15T02:58:37;15.35;;;2.42;;
63288;SDS011;49412;48.162;-1.978;2022-11-15T03:09:54;12.02;;;1.80;;
63288;SDS011;49412;48.162;-1.978;2022-11-15T03:12:46;11.18;;;2.10;;
63288;SDS011;49412;48.162;-1.978;2022-11-15T03:15:21;15.02;;;2.38;;
63288;SDS011;49412;48.162;-1.978;2022-11-15T03:17:55;14.52;;;2.28;;
63288;SDS011;49412;48.162;-1.978;2022-11-15T03:20:26;11.88;;;1.80;;
63288;SDS011;49412;48.162;-1.978;2022-11-15T03:22:54;10.25;;;2.25;;
63288;SDS011;49412;48.162;-1.978;2022-11-15T03:25:25;17.38;;;2.33;;
63288;SDS011;49412;48.162;-1.978;2022-11-15T03:27:53;13.95;;;2.40;;
63288;SDS011;49412;48.162;-1.978;2022-11-15T03:30:21;17.60;;;2.15;;
63288;SDS011;49412;48.162;-1.978;2022-11-15T03:35:18;16.48;;;2.22;;
63288;SDS011;49412;48.162;-1.978;2022-11-15T03:37:54;12.45;;;2.35;;
63288;SDS011;49412;48.162;-1.978;2022-11-15T03:40:30;16.85;;;2.75;;
63288;SDS011;49412;48.162;-1.978;2022-11-15T03:45:38;15.57;;;2.58;;
63288;SDS011;49412;48.162;-1.978;2022-11-15T03:48:09;14.75;;;1.95;;
63288;SDS011;49412;48.162;-1.978;2022-11-15T03:50:39;15.02;;;2.13;;
63288;SDS011;49412;48.162;-1.978;2022-11-15T03:53:06;10.25;;;2.08;;
63288;SDS011;49412;48.162;-1.978;2022-11-15T03:57:58;12.98;;;2.13;;
63288;SDS011;49412;48.162;-1.978;2022-11-15T04:00:26;17.38;;;1.95;;
63288;SDS011;49412;48.162;-1.978;2022-11-15T04:02:52;11.82;;;2.50;;
63288;SDS011;49412;48.162;-1.978;2022-11-15T04:07:44;12.45;;;1.92;;
63288;SDS011;49412;48.162;-1.978;2022-11-15T04:10:10;16.85;;;2.63;;
63288;SDS011;49412;48.162;-1.978;2022-11-15T04:12:38;14.88;;;2.20;;
63288;SDS011;49412;48.162;-1.978;2022-11-15T04:15:07;17.55;;;2.67;;
63288;SDS011;49412;48.162;-1.978;2022-11-15T04:17:35;16.55;;;2.50;;
63288;SDS011;49412;48.162;-1.978;2022-11-15T04:20:09;13.15;;;2.30;;
63288;SDS011;49412;48.162;-1.978;2022-11-15T04:22:59;13.00;;;2.38;;
63288;SDS011;49412;48.162;-1.978;2022-11-15T04:25:44;19.10;;;2.50;;
63288;SDS011;49412;48.162;-1.978;2022-11-15T04:28:11;18.25;;;2.42;;
63288;SDS011;49412;48.162;-1.978;2022-11-15T04:30:37;15.43;;;2.45;;
63288;SDS011;49412;48.162;-1.978;2022-11-15T04:33:03;17.63;;;4.05;;
63288;SDS011;49412;48.162;-1.978;2022-11-15T04:37:55;16.05;;;2.53;;
63288;SDS011;49412;48.162;-1.978;2022-11-15T04:40:22;12.32;;;2.72;;
63288;SDS011;49412;48.162;-1.978;2022-11-15T04:45:13;17.33;;;2.72;;
63288;SDS011;49412;48.162;-1.978;2022-11-15T04:47:39;17.60;;;2.50;;
63288;SDS011;49412;48.162;-1.978;2022-11-15T04:50:06;14.98;;;3.60;;
63288;SDS011;49412;48.162;-1.978;2022-11-15T04:52:32;10.93;;;2.00;;
63288;SDS011;49412;48.162;-1.978;2022-11-15T05:02:14;12.73;;;2.40;;
63288;SDS011;49412;48.162;-1.978;2022-11-15T05:04:40;9.63;;;2.20;;
63288;SDS011;49412;48.162;-1.978;2022-11-15T05:07:06;14.68;;;2.90;;
63288;SDS011;49412;48.162;-1.978;2022-11-15T05:09:32;11.32;;;2.38;;
63288;SDS011;49412;48.162;-1.978;2022-11-15T05:28:57;10.57;;;2.10;;
63288;SDS011;49412;48.162;-1.978;2022-11-15T05:31:24;14.38;;;2.13;;
63288;SDS011;49412;48.162;-1.978;2022-11-15T05:33:51;11.50;;;2.13;;
63288;SDS011;49412;48.162;-1.978;2022-11-15T05:39:01;11.35;;;2.10;;
63288;SDS011;49412;48.162;-1.978;2022-11-15T05:41:32;10.90;;;2.10;;
63288;SDS011;49412;48.162;-1.978;2022-11-15T05:44:02;11.05;;;2.10;;
63288;SDS011;49412;48.162;-1.978;2022-11-15T05:46:31;12.10;;;2.10;;
63288;SDS011;49412;48.162;-1.978;2022-11-15T05:48:58;15.45;;;2.60;;
63288;SDS011;49412;48.162;-1.978;2022-11-15T05:51:24;15.52;;;2.10;;
63288;SDS011;49412;48.162;-1.978;2022-11-15T05:53:52;14.25;;;2.42;;
63288;SDS011;49412;48.162;-1.978;2022-11-15T05:56:20;10.00;;;2.15;;
63288;SDS011;49412;48.162;-1.978;2022-11-15T06:01:11;10.10;;;1.80;;
63288;SDS011;49412;48.162;-1.978;2022-11-15T06:03:37;10.82;;;2.28;;
63288;SDS011;49412;48.162;-1.978;2022-11-15T06:06:03;12.10;;;2.10;;
63288;SDS011;49412;48.162;-1.978;2022-11-15T06:10:54;6.20;;;1.83;;
63288;SDS011;49412;48.162;-1.978;2022-11-15T06:13:20;12.18;;;2.92;;
63288;SDS011;49412;48.162;-1.978;2022-11-15T06:15:45;9.50;;;2.13;;
63288;SDS011;49412;48.162;-1.978;2022-11-15T06:18:11;8.68;;;1.70;;
63288;SDS011;49412;48.162;-1.978;2022-11-15T06:20:37;7.88;;;1.73;;
63288;SDS011;49412;48.162;-1.978;2022-11-15T06:23:03;13.75;;;1.85;;
63288;SDS011;49412;48.162;-1.978;2022-11-15T06:25:30;10.60;;;1.92;;
63288;SDS011;49412;48.162;-1.978;2022-11-15T06:27:56;11.45;;;2.35;;
63288;SDS011;49412;48.162;-1.978;2022-11-15T06:30:24;15.80;;;2.13;;
63288;SDS011;49412;48.162;-1.978;2022-11-15T06:32:51;13.65;;;2.30;;
63288;SDS011;49412;48.162;-1.978;2022-11-15T06:37:42;12.52;;;3.00;;
63288;SDS011;49412;48.162;-1.978;2022-11-15T06:40:09;18.08;;;2.72;;
63288;SDS011;49412;48.162;-1.978;2022-11-15T06:42:35;11.15;;;2.20;;
63288;SDS011;49412;48.162;-1.978;2022-11-15T06:47:26;8.75;;;2.17;;
63288;SDS011;49412;48.162;-1.978;2022-11-15T06:52:18;13.70;;;2.70;;
63288;SDS011;49412;48.162;-1.978;2022-11-15T06:54:44;13.40;;;2.42;;
63288;SDS011;49412;48.162;-1.978;2022-11-15T06:59:36;11.02;;;2.20;;
63288;SDS011;49412;48.162;-1.978;2022-11-15T07:02:02;11.13;;;2.50;;
63288;SDS011;49412;48.162;-1.978;2022-11-15T07:04:28;12.15;;;2.15;;
63288;SDS011;49412;48.162;-1.978;2022-11-15T07:09:20;12.85;;;2.58;;
63288;SDS011;49412;48.162;-1.978;2022-11-15T07:11:45;10.88;;;2.30;;
63288;SDS011;49412;48.162;-1.978;2022-11-15T07:16:37;8.25;;;2.08;;
63288;SDS011;49412;48.162;-1.978;2022-11-15T07:19:03;9.48;;;2.03;;
63288;SDS011;49412;48.162;-1.978;2022-11-15T07:21:29;11.27;;;2.28;;
63288;SDS011;49412;48.162;-1.978;2022-11-15T07:23:54;8.43;;;2.15;;
63288;SDS011;49412;48.162;-1.978;2022-11-15T07:26:21;9.48;;;1.90;;
63288;SDS011;49412;48.162;-1.978;2022-11-15T07:31:12;9.05;;;2.08;;
63288;SDS011;49412;48.162;-1.978;2022-11-15T07:34:00;9.10;;;1.83;;
63288;SDS011;49412;48.162;-1.978;2022-11-15T07:38:52;7.15;;;1.75;;
63288;SDS011;49412;48.162;-1.978;2022-11-15T07:41:17;7.22;;;1.90;;
63288;SDS011;49412;48.162;-1.978;2022-11-15T07:46:09;6.90;;;1.80;;
63288;SDS011;49412;48.162;-1.978;2022-11-15T07:48:35;7.25;;;1.77;;
63288;SDS011;49412;48.162;-1.978;2022-11-15T07:51:02;7.35;;;1.90;;
63288;SDS011;49412;48.162;-1.978;2022-11-15T07:55:53;6.57;;;1.60;;
63288;SDS011;49412;48.162;-1.978;2022-11-15T07:58:19;6.22;;;1.95;;
63288;SDS011;49412;48.162;-1.978;2022-11-15T08:00:45;6.07;;;1.70;;
63288;SDS011;49412;48.162;-1.978;2022-11-15T08:03:11;7.82;;;1.90;;
63288;SDS011;49412;48.162;-1.978;2022-11-15T08:05:39;3.72;;;1.48;;
63288;SDS011;49412;48.162;-1.978;2022-11-15T08:08:06;7.28;;;1.85;;
63288;SDS011;49412;48.162;-1.978;2022-11-15T08:10:34;8.25;;;1.90;;
63288;SDS011;49412;48.162;-1.978;2022-11-15T08:13:01;4.88;;;1.60;;
63288;SDS011;49412;48.162;-1.978;2022-11-15T08:15:28;5.30;;;1.60;;
63288;SDS011;49412;48.162;-1.978;2022-11-15T08:17:56;4.40;;;1.58;;
63288;SDS011;49412;48.162;-1.978;2022-11-15T08:20:22;5.85;;;1.60;;
63288;SDS011;49412;48.162;-1.978;2022-11-15T08:22:49;5.28;;;1.60;;
63288;SDS011;49412;48.162;-1.978;2022-11-15T08:27:41;5.38;;;1.35;;
63288;SDS011;49412;48.162;-1.978;2022-11-15T08:32:32;4.82;;;1.27;;
63288;SDS011;49412;48.162;-1.978;2022-11-15T08:34:58;3.97;;;1.48;;
63288;SDS011;49412;48.162;-1.978;2022-11-15T08:39:49;7.43;;;1.65;;
63288;SDS011;49412;48.162;-1.978;2022-11-15T08:42:15;5.15;;;1.42;;
63288;SDS011;49412;48.162;-1.978;2022-11-15T08:44:41;5.55;;;1.30;;
63288;SDS011;49412;48.162;-1.978;2022-11-15T08:47:07;7.47;;;1.75;;
63288;SDS011;49412;48.162;-1.978;2022-11-15T08:49:35;6.25;;;1.30;;
63288;SDS011;49412;48.162;-1.978;2022-11-15T08:54:27;5.30;;;1.67;;
63288;SDS011;49412;48.162;-1.978;2022-11-15T08:59:18;12.15;;;2.53;;
63288;SDS011;49412;48.162;-1.978;2022-11-15T09:01:44;12.38;;;2.60;;
63288;SDS011;49412;48.162;-1.978;2022-11-15T09:04:10;12.05;;;2.83;;
63288;SDS011;49412;48.162;-1.978;2022-11-15T09:06:36;12.23;;;2.28;;
63288;SDS011;49412;48.162;-1.978;2022-11-15T09:11:27;14.18;;;2.50;;
63288;SDS011;49412;48.162;-1.978;2022-11-15T09:13:53;13.05;;;2.53;;
63288;SDS011;49412;48.162;-1.978;2022-11-15T09:16:19;15.30;;;2.35;;
63288;SDS011;49412;48.162;-1.978;2022-11-15T09:21:10;16.67;;;2.60;;
63288;SDS011;49412;48.162;-1.978;2022-11-15T09:23:36;11.85;;;2.22;;
63288;SDS011;49412;48.162;-1.978;2022-11-15T09:26:03;12.30;;;2.42;;
63288;SDS011;49412;48.162;-1.978;2022-11-15T09:28:30;13.10;;;2.38;;
63288;SDS011;49412;48.162;-1.978;2022-11-15T09:31:03;15.18;;;2.50;;
63288;SDS011;49412;48.162;-1.978;2022-11-15T09:33:30;14.23;;;3.00;;
63288;SDS011;49412;48.162;-1.978;2022-11-15T09:36:14;11.40;;;2.17;;
63288;SDS011;49412;48.162;-1.978;2022-11-15T09:38:40;11.32;;;2.17;;
63288;SDS011;49412;48.162;-1.978;2022-11-15T09:46:28;10.77;;;2.10;;
63288;SDS011;49412;48.162;-1.978;2022-11-15T09:49:10;10.65;;;1.98;;
63288;SDS011;49412;48.162;-1.978;2022-11-15T09:51:40;12.45;;;2.38;;
63288;SDS011;49412;48.162;-1.978;2022-11-15T09:56:56;9.30;;;1.92;;
63288;SDS011;49412;48.162;-1.978;2022-11-15T09:59:43;12.50;;;2.55;;
63288;SDS011;49412;48.162;-1.978;2022-11-15T10:05:14;10.35;;;1.95;;
63288;SDS011;49412;48.162;-1.978;2022-11-15T10:13:02;13.10;;;2.20;;
63288;SDS011;49412;48.162;-1.978;2022-11-15T10:15:29;9.52;;;2.00;;
63288;SDS011;49412;48.162;-1.978;2022-11-15T10:23:22;14.15;;;2.85;;
63288;SDS011;49412;48.162;-1.978;2022-11-15T10:25:52;12.98;;;2.20;;
63288;SDS011;49412;48.162;-1.978;2022-11-15T10:28:26;13.70;;;2.20;;
63288;SDS011;49412;48.162;-1.978;2022-11-15T10:30:54;13.63;;;2.50;;
63288;SDS011;49412;48.162;-1.978;2022-11-15T10:33:34;11.20;;;2.40;;
63288;SDS011;49412;48.162;-1.978;2022-11-15T10:38:49;12.10;;;2.50;;
63288;SDS011;49412;48.162;-1.978;2022-11-15T10:41:19;12.68;;;2.60;;
63288;SDS011;49412;48.162;-1.978;2022-11-15T10:44:31;13.70;;;2.60;;
63288;SDS011;49412;48.162;-1.978;2022-11-15T10:46:36;17.00;;;3.15;;
63288;SDS011;49412;48.162;-1.978;2022-11-15T10:49:22;13.88;;;2.67;;
63288;SDS011;49412;48.162;-1.978;2022-11-15T10:51:57;13.52;;;3.10;;
63288;SDS011;49412;48.162;-1.978;2022-11-15T10:57:20;13.35;;;2.47;;
63288;SDS011;49412;48.162;-1.978;2022-11-15T10:59:56;13.98;;;2.83;;
63288;SDS011;49412;48.162;-1.978;2022-11-15T11:02:36;11.15;;;2.40;;
63288;SDS011;49412;48.162;-1.978;2022-11-15T11:05:05;11.88;;;2.53;;
63288;SDS011;49412;48.162;-1.978;2022-11-15T11:07:54;14.55;;;2.88;;
63288;SDS011;49412;48.162;-1.978;2022-11-15T11:10:26;13.70;;;3.05;;
63288;SDS011;49412;48.162;-1.978;2022-11-15T11:12:52;13.27;;;2.60;;
63288;SDS011;49412;48.162;-1.978;2022-11-15T11:15:18;12.18;;;2.50;;
63288;SDS011;49412;48.162;-1.978;2022-11-15T11:20:38;10.23;;;2.63;;
63288;SDS011;49412;48.162;-1.978;2022-11-15T11:28:52;12.32;;;2.75;;
63288;SDS011;49412;48.162;-1.978;2022-11-15T11:36:53;15.57;;;2.65;;
63288;SDS011;49412;48.162;-1.978;2022-11-15T11:47:15;12.20;;;2.13;;
63288;SDS011;49412;48.162;-1.978;2022-11-15T11:55:03;10.18;;;2.35;;
63288;SDS011;49412;48.162;-1.978;2022-11-15T11:57:59;8.70;;;2.20;;
63288;SDS011;49412;48.162;-1.978;2022-11-15T12:00:51;11.20;;;2.45;;
63288;SDS011;49412;48.162;-1.978;2022-11-15T12:11:37;8.27;;;2.20;;
63288;SDS011;49412;48.162;-1.978;2022-11-15T12:14:21;9.00;;;2.37;;
63288;SDS011;49412;48.162;-1.978;2022-11-15T12:17:00;9.95;;;2.50;;
63288;SDS011;49412;48.162;-1.978;2022-11-15T12:19:26;9.95;;;2.70;;
63288;SDS011;49412;48.162;-1.978;2022-11-15T12:22:05;8.57;;;1.88;;
63288;SDS011;49412;48.162;-1.978;2022-11-15T12:24:48;9.25;;;2.13;;
63288;SDS011;49412;48.162;-1.978;2022-11-15T12:27:34;11.55;;;2.65;;
63288;SDS011;49412;48.162;-1.978;2022-11-15T12:30:18;12.95;;;3.13;;
63288;SDS011;49412;48.162;-1.978;2022-11-15T12:32:59;8.65;;;2.10;;
63288;SDS011;49412;48.162;-1.978;2022-11-15T12:35:39;10.60;;;2.17;;
63288;SDS011;49412;48.162;-1.978;2022-11-15T12:38:11;10.07;;;2.42;;
63288;SDS011;49412;48.162;-1.978;2022-11-15T12:40:38;11.57;;;2.38;;
63288;SDS011;49412;48.162;-1.978;2022-11-15T12:46:04;12.65;;;2.65;;
63288;SDS011;49412;48.162;-1.978;2022-11-15T12:51:02;18.17;;;3.10;;
63288;SDS011;49412;48.162;-1.978;2022-11-15T12:53:29;10.43;;;1.98;;
63288;SDS011;49412;48.162;-1.978;2022-11-15T12:58:39;11.13;;;2.40;;
63288;SDS011;49412;48.162;-1.978;2022-11-15T13:06:38;9.60;;;2.30;;
63288;SDS011;49412;48.162;-1.978;2022-11-15T13:09:49;9.10;;;2.15;;
63288;SDS011;49412;48.162;-1.978;2022-11-15T13:11:59;9.38;;;2.20;;
63288;SDS011;49412;48.162;-1.978;2022-11-15T13:19:52;17.60;;;2.80;;
63288;SDS011;49412;48.162;-1.978;2022-11-15T13:22:27;12.02;;;2.35;;
63288;SDS011;49412;48.162;-1.978;2022-11-15T13:35:56;7.45;;;2.10;;
63288;SDS011;49412;48.162;-1.978;2022-11-15T13:40:51;9.07;;;2.30;;
63288;SDS011;49412;48.162;-1.978;2022-11-15T13:48:52;9.23;;;2.35;;
63288;SDS011;49412;48.162;-1.978;2022-11-15T13:51:51;7.22;;;2.17;;
63288;SDS011;49412;48.162;-1.978;2022-11-15T13:59:30;12.77;;;2.30;;
63288;SDS011;49412;48.162;-1.978;2022-11-15T14:02:01;8.23;;;2.35;;
63288;SDS011;49412;48.162;-1.978;2022-11-15T14:04:36;11.35;;;2.13;;
63288;SDS011;49412;48.162;-1.978;2022-11-15T14:07:05;10.85;;;2.15;;
63288;SDS011;49412;48.162;-1.978;2022-11-15T14:09:40;5.95;;;2.03;;
63288;SDS011;49412;48.162;-1.978;2022-11-15T14:14:58;8.63;;;2.40;;
63288;SDS011;49412;48.162;-1.978;2022-11-15T14:19:54;6.68;;;2.00;;
63288;SDS011;49412;48.162;-1.978;2022-11-15T14:22:22;10.68;;;2.10;;
63288;SDS011;49412;48.162;-1.978;2022-11-15T14:27:38;15.80;;;2.28;;
63288;SDS011;49412;48.162;-1.978;2022-11-15T14:30:04;9.57;;;2.20;;
63288;SDS011;49412;48.162;-1.978;2022-11-15T14:32:49;9.60;;;1.95;;
63288;SDS011;49412;48.162;-1.978;2022-11-15T14:35:20;9.52;;;2.10;;
63288;SDS011;49412;48.162;-1.978;2022-11-15T14:37:47;9.23;;;1.80;;
63288;SDS011;49412;48.162;-1.978;2022-11-15T14:40:14;9.88;;;2.10;;
63288;SDS011;49412;48.162;-1.978;2022-11-15T14:42:42;11.65;;;2.33;;
63288;SDS011;49412;48.162;-1.978;2022-11-15T14:45:13;10.88;;;2.10;;
63288;SDS011;49412;48.162;-1.978;2022-11-15T14:47:39;13.20;;;2.33;;
63288;SDS011;49412;48.162;-1.978;2022-11-15T14:50:06;7.97;;;1.90;;
63288;SDS011;49412;48.162;-1.978;2022-11-15T14:52:35;14.27;;;2.58;;
63288;SDS011;49412;48.162;-1.978;2022-11-15T14:55:02;8.80;;;1.88;;
63288;SDS011;49412;48.162;-1.978;2022-11-15T14:57:35;9.73;;;2.63;;
63288;SDS011;49412;48.162;-1.978;2022-11-15T15:00:01;8.55;;;2.00;;
63288;SDS011;49412;48.162;-1.978;2022-11-15T15:02:27;7.53;;;1.80;;
63288;SDS011;49412;48.162;-1.978;2022-11-15T15:04:53;10.00;;;1.77;;
63288;SDS011;49412;48.162;-1.978;2022-11-15T15:07:19;7.03;;;1.63;;
63288;SDS011;49412;48.162;-1.978;2022-11-15T15:09:45;8.95;;;1.83;;
63288;SDS011;49412;48.162;-1.978;2022-11-15T15:12:29;9.32;;;2.00;;
63288;SDS011;49412;48.162;-1.978;2022-11-15T15:14:55;10.25;;;2.00;;
63288;SDS011;49412;48.162;-1.978;2022-11-15T15:17:21;8.57;;;2.10;;
63288;SDS011;49412;48.162;-1.978;2022-11-15T15:19:47;10.55;;;2.10;;
63288;SDS011;49412;48.162;-1.978;2022-11-15T15:22:16;11.25;;;2.15;;
63288;SDS011;49412;48.162;-1.978;2022-11-15T15:24:45;28.60;;;3.15;;
63288;SDS011;49412;48.162;-1.978;2022-11-15T15:27:11;15.07;;;2.35;;
63288;SDS011;49412;48.162;-1.978;2022-11-15T15:29:37;9.35;;;2.20;;
63288;SDS011;49412;48.162;-1.978;2022-11-15T15:32:05;20.33;;;3.05;;
63288;SDS011;49412;48.162;-1.978;2022-11-15T15:34:31;11.32;;;2.55;;
63288;SDS011;49412;48.162;-1.978;2022-11-15T15:37:19;16.00;;;2.70;;
63288;SDS011;49412;48.162;-1.978;2022-11-15T15:39:54;26.30;;;3.03;;
63288;SDS011;49412;48.162;-1.978;2022-11-15T15:42:21;21.48;;;7.00;;
63288;SDS011;49412;48.162;-1.978;2022-11-15T15:44:48;18.33;;;2.67;;
63288;SDS011;49412;48.162;-1.978;2022-11-15T15:47:18;16.30;;;4.15;;
63288;SDS011;49412;48.162;-1.978;2022-11-15T15:49:46;13.02;;;2.63;;
63288;SDS011;49412;48.162;-1.978;2022-11-15T15:52:12;15.95;;;3.42;;
63288;SDS011;49412;48.162;-1.978;2022-11-15T15:54:39;14.07;;;2.25;;
63288;SDS011;49412;48.162;-1.978;2022-11-15T15:57:05;15.32;;;2.75;;
63288;SDS011;49412;48.162;-1.978;2022-11-15T15:59:31;13.73;;;3.80;;
63288;SDS011;49412;48.162;-1.978;2022-11-15T16:01:57;10.32;;;2.65;;
63288;SDS011;49412;48.162;-1.978;2022-11-15T16:06:49;24.80;;;3.28;;
63288;SDS011;49412;48.162;-1.978;2022-11-15T16:09:18;26.15;;;3.45;;
63288;SDS011;49412;48.162;-1.978;2022-11-15T16:12:04;30.42;;;10.60;;
63288;SDS011;49412;48.162;-1.978;2022-11-15T16:14:30;142.35;;;58.58;;
63288;SDS011;49412;48.162;-1.978;2022-11-15T16:16:57;94.97;;;41.15;;
